createdAt,value
2018-01-29T00:00:03.982Z,102843.48
2018-01-29T00:02:32.315Z,102836.30
2018-01-29T00:05:01.736Z,102833.05
2018-01-29T00:07:30.032Z,102832.16
2018-01-29T00:09:58.435Z,102826.45
2018-01-29T00:12:26.735Z,102814.66
2018-01-29T00:14:55.227Z,102818.10
2018-01-29T00:17:23.584Z,102818.70
2018-01-29T00:19:51.918Z,102828.91
2018-01-29T00:22:21.028Z,102817.28
2018-01-29T00:24:49.336Z,102822.80
2018-01-29T00:27:17.650Z,102822.04
2018-01-29T00:29:45.931Z,102816.92
2018-01-29T00:32:14.399Z,102820.52
2018-01-29T00:34:42.710Z,102809.47
2018-01-29T00:37:11.032Z,102803.81
2018-01-29T00:39:39.580Z,102812.14
2018-01-29T00:42:08.671Z,102811.16
2018-01-29T00:44:36.988Z,102801.55
2018-01-29T00:47:05.296Z,102803.70
2018-01-29T00:49:33.593Z,102779.45
2018-01-29T00:52:01.888Z,102788.91
2018-01-29T00:54:30.222Z,102778.44
2018-01-29T00:56:58.523Z,102759.88
2018-01-29T00:59:27.132Z,102780.88
2018-01-29T01:01:55.440Z,102766.49
2018-01-29T01:04:24.486Z,102787.48
2018-01-29T01:06:52.824Z,102772.91
2018-01-29T01:09:21.920Z,102764.66
2018-01-29T01:11:51.027Z,102766.08
2018-01-29T01:14:20.106Z,102760.12
2018-01-29T01:16:48.444Z,102745.90
2018-01-29T01:19:16.900Z,102760.78
2018-01-29T01:21:45.988Z,102758.11
2018-01-29T01:24:15.064Z,102767.12
2018-01-29T01:26:43.378Z,102755.01
2018-01-29T01:29:12.432Z,102760.36
2018-01-29T01:31:40.772Z,102758.27
2018-01-29T01:34:09.203Z,102755.59
2018-01-29T01:36:37.804Z,102760.86
2018-01-29T01:39:06.116Z,102754.25
2018-01-29T01:41:35.200Z,102744.38
2018-01-29T01:44:03.502Z,102749.81
2018-01-29T01:46:31.802Z,102750.39
2018-01-29T01:49:00.213Z,102748.72
2018-01-29T01:51:28.546Z,102738.78
2018-01-29T01:53:57.615Z,102744.86
2018-01-29T01:56:25.924Z,102739.01
2018-01-29T01:58:54.975Z,102758.66
2018-01-29T02:01:23.282Z,102755.67
2018-01-29T02:03:51.738Z,102748.73
2018-01-29T02:06:20.030Z,102738.10
2018-01-29T02:08:48.370Z,102751.74
2018-01-29T02:11:16.730Z,102739.44
2018-01-29T02:13:45.820Z,102724.38
2018-01-29T02:16:14.914Z,102729.73
2018-01-29T02:18:43.853Z,102732.33
2018-01-29T02:21:12.178Z,102724.30
2018-01-29T02:23:40.819Z,102725.48
2018-01-29T02:26:09.134Z,102708.09
2018-01-29T02:28:37.462Z,102720.87
2018-01-29T02:31:06.574Z,102722.78
2018-01-29T02:33:34.958Z,102719.11
2018-01-29T02:36:03.306Z,102711.00
2018-01-29T02:38:31.622Z,102722.70
2018-01-29T02:40:59.934Z,102715.52
2018-01-29T02:43:28.229Z,102704.97
2018-01-29T02:45:56.566Z,102708.06
2018-01-29T02:48:24.954Z,102692.85
2018-01-29T02:50:53.238Z,102690.93
2018-01-29T02:53:21.548Z,102691.33
2018-01-29T02:55:50.536Z,102681.63
2018-01-29T02:58:18.844Z,102678.88
2018-01-29T03:00:47.154Z,102667.17
2018-01-29T03:03:16.960Z,102674.20
2018-01-29T03:05:46.098Z,102662.66
2018-01-29T03:08:14.407Z,102662.23
2018-01-29T03:10:42.740Z,102667.51
2018-01-29T03:13:11.824Z,102656.05
2018-01-29T03:15:40.139Z,102671.77
2018-01-29T03:18:08.430Z,102670.50
2018-01-29T03:20:36.738Z,102665.49
2018-01-29T03:23:05.038Z,102679.11
2018-01-29T03:25:33.377Z,102667.00
2018-01-29T03:28:01.694Z,102656.72
2018-01-29T03:30:30.182Z,102656.80
2018-01-29T03:32:58.522Z,102653.20
2018-01-29T03:35:26.856Z,102667.73
2018-01-29T03:37:55.378Z,102672.50
2018-01-29T03:40:23.682Z,102667.09
2018-01-29T03:42:52.002Z,102667.41
2018-01-29T03:45:20.309Z,102672.67
2018-01-29T03:47:49.451Z,102670.42
2018-01-29T03:50:17.778Z,102662.05
2018-01-29T03:52:46.913Z,102674.44
2018-01-29T03:55:15.958Z,102662.89
2018-01-29T03:57:44.326Z,102662.14
2018-01-29T04:00:12.650Z,102660.78
2018-01-29T04:02:41.715Z,102659.10
2018-01-29T04:05:10.020Z,102650.16
2018-01-29T04:07:38.334Z,102651.31
2018-01-29T04:10:06.680Z,102639.70
2018-01-29T04:12:34.980Z,102632.87
2018-01-29T04:15:04.140Z,102632.19
2018-01-29T04:17:32.455Z,102616.64
2018-01-29T04:20:01.543Z,102629.85
2018-01-29T04:22:30.646Z,102623.41
2018-01-29T04:24:58.975Z,102617.54
2018-01-29T04:27:27.274Z,102607.34
2018-01-29T04:29:55.586Z,102608.50
2018-01-29T04:32:23.900Z,102597.08
2018-01-29T04:34:52.206Z,102608.85
2018-01-29T04:37:20.546Z,102621.96
2018-01-29T04:39:48.909Z,102613.10
2018-01-29T04:42:17.180Z,102618.61
2018-01-29T04:44:45.484Z,102609.33
2018-01-29T04:47:15.250Z,102600.97
2018-01-29T04:49:43.567Z,102604.56
2018-01-29T04:52:11.863Z,102607.39
2018-01-29T04:54:40.209Z,102589.34
2018-01-29T04:57:08.514Z,102589.41
2018-01-29T04:59:36.832Z,102614.41
2018-01-29T05:02:05.170Z,102607.55
2018-01-29T05:04:34.983Z,102598.11
2018-01-29T05:07:03.273Z,102600.18
2018-01-29T05:09:31.588Z,102581.80
2018-01-29T05:11:59.896Z,102607.55
2018-01-29T05:14:28.198Z,102601.62
2018-01-29T05:16:56.509Z,102602.95
2018-01-29T05:19:24.837Z,102603.30
2018-01-29T05:21:53.227Z,102601.36
2018-01-29T05:24:21.582Z,102600.59
2018-01-29T05:26:49.924Z,102604.34
2018-01-29T05:29:18.239Z,102615.20
2018-01-29T05:31:47.339Z,102600.50
2018-01-29T05:34:16.445Z,102609.09
2018-01-29T05:39:47.941Z,102613.35
2018-01-29T05:42:16.419Z,102598.57
2018-01-29T05:44:44.726Z,102596.31
2018-01-29T05:47:13.369Z,102592.73
2018-01-29T05:49:41.673Z,102592.39
2018-01-29T05:52:09.995Z,102606.59
2018-01-29T05:54:38.301Z,102604.34
2018-01-29T05:57:06.617Z,102601.24
2018-01-29T05:59:34.954Z,102588.42
2018-01-29T06:02:03.285Z,102596.60
2018-01-29T06:04:31.604Z,102582.23
2018-01-29T06:06:59.909Z,102585.41
2018-01-29T06:09:29.229Z,102571.70
2018-01-29T06:11:57.553Z,102582.56
2018-01-29T06:14:25.855Z,102581.98
2018-01-29T06:16:54.159Z,102572.78
2018-01-29T06:19:23.255Z,102578.89
2018-01-29T06:21:52.355Z,102578.23
2018-01-29T06:24:21.451Z,102571.97
2018-01-29T06:26:50.570Z,102585.75
2018-01-29T06:29:18.877Z,102579.56
2018-01-29T06:31:47.635Z,102563.53
2018-01-29T06:34:16.950Z,102595.06
2018-01-29T06:36:45.259Z,102578.02
2018-01-29T06:39:13.599Z,102575.27
2018-01-29T06:41:42.719Z,102583.21
2018-01-29T06:44:12.101Z,102576.70
2018-01-29T06:46:41.171Z,102570.52
2018-01-29T06:49:10.213Z,102579.61
2018-01-29T06:51:38.529Z,102568.00
2018-01-29T06:54:06.849Z,102567.76
2018-01-29T06:56:36.089Z,102560.58
2018-01-29T06:59:04.425Z,102561.91
2018-01-29T07:01:32.746Z,102538.35
2018-01-29T07:04:01.183Z,102560.34
2018-01-29T07:06:29.558Z,102558.16
2018-01-29T07:08:57.899Z,102560.67
2018-01-29T07:11:26.229Z,102559.18
2018-01-29T07:13:54.579Z,102553.67
2018-01-29T07:16:22.879Z,102560.52
2018-01-29T07:18:51.955Z,102563.19
2018-01-29T07:21:20.319Z,102549.74
2018-01-29T07:23:48.654Z,102546.57
2018-01-29T07:26:16.949Z,102550.73
2018-01-29T07:28:45.261Z,102537.11
2018-01-29T07:31:13.559Z,102550.64
2018-01-29T07:33:41.852Z,102539.53
2018-01-29T07:36:10.159Z,102545.13
2018-01-29T07:38:39.989Z,102547.48
2018-01-29T07:41:08.309Z,102530.11
2018-01-29T07:43:36.603Z,102525.86
2018-01-29T07:46:04.905Z,102536.44
2018-01-29T07:48:33.947Z,102530.51
2018-01-29T07:51:03.005Z,102531.77
2018-01-29T07:53:31.357Z,102538.55
2018-01-29T07:55:59.675Z,102533.30
2018-01-29T07:58:28.431Z,102516.00
2018-01-29T08:00:56.759Z,102521.00
2018-01-29T08:03:25.084Z,102530.61
2018-01-29T08:05:53.393Z,102520.93
2018-01-29T08:08:21.678Z,102509.96
2018-01-29T08:10:49.997Z,102513.48
2018-01-29T08:13:18.302Z,102510.73
2018-01-29T08:15:46.604Z,102509.88
2018-01-29T08:18:14.905Z,102496.09
2018-01-29T08:20:43.222Z,102504.02
2018-01-29T08:23:12.288Z,102493.65
2018-01-29T08:25:40.725Z,102486.92
2018-01-29T08:28:09.838Z,102505.08
2018-01-29T08:30:38.149Z,102500.39
2018-01-29T08:33:06.442Z,102506.89
2018-01-29T08:35:34.773Z,102524.30
2018-01-29T08:38:03.850Z,102514.31
2018-01-29T08:40:32.160Z,102497.16
2018-01-29T08:43:00.477Z,102508.53
2018-01-29T08:45:28.776Z,102486.98
2018-01-29T08:47:57.079Z,102504.22
2018-01-29T08:50:26.790Z,102486.47
2018-01-29T08:52:55.124Z,102465.04
2018-01-29T08:55:23.449Z,102472.74
2018-01-29T08:57:51.801Z,102477.93
2018-01-29T09:00:20.127Z,102486.12
2018-01-29T09:02:49.234Z,102482.33
2018-01-29T09:05:18.289Z,102476.75
2018-01-29T09:07:46.598Z,102480.78
2018-01-29T09:10:14.941Z,102469.14
2018-01-29T09:12:43.261Z,102471.55
2018-01-29T09:15:11.571Z,102472.62
2018-01-29T09:17:40.642Z,102462.03
2018-01-29T09:20:09.713Z,102473.16
2018-01-29T09:22:38.018Z,102465.56
2018-01-29T09:25:06.323Z,102458.86
2018-01-29T09:27:35.439Z,102466.05
2018-01-29T09:30:03.743Z,102458.93
2018-01-29T09:32:32.052Z,102464.87
2018-01-29T09:35:00.428Z,102472.91
2018-01-29T09:37:28.721Z,102475.50
2018-01-29T09:39:57.015Z,102469.13
2018-01-29T09:42:26.090Z,102469.92
2018-01-29T09:44:54.404Z,102459.69
2018-01-29T09:47:23.459Z,102477.01
2018-01-29T09:49:51.775Z,102454.90
2018-01-29T09:54:48.421Z,102471.58
2018-01-29T09:57:16.826Z,102467.58
2018-01-29T09:59:45.892Z,102467.48
2018-01-29T10:02:14.286Z,102464.94
2018-01-29T10:04:43.497Z,102457.33
2018-01-29T10:07:11.784Z,102441.16
2018-01-29T10:09:40.286Z,102463.45
2018-01-29T10:12:09.389Z,102464.30
2018-01-29T10:14:38.442Z,102469.80
2018-01-29T10:17:06.737Z,102466.04
2018-01-29T10:19:35.061Z,102479.62
2018-01-29T10:22:03.401Z,102485.51
2018-01-29T10:24:31.724Z,102458.59
2018-01-29T10:27:00.050Z,102452.98
2018-01-29T10:29:28.358Z,102453.48
2018-01-29T10:31:57.432Z,102453.33
2018-01-29T10:34:25.735Z,102456.36
2018-01-29T10:36:54.031Z,102456.45
2018-01-29T10:39:23.178Z,102447.48
2018-01-29T10:41:51.472Z,102459.28
2018-01-29T10:44:19.768Z,102429.03
2018-01-29T10:46:48.094Z,102425.42
2018-01-29T10:49:16.394Z,102430.39
2018-01-29T10:51:44.699Z,102415.28
2018-01-29T10:54:13.043Z,102415.87
2018-01-29T10:56:41.348Z,102424.50
2018-01-29T10:59:09.710Z,102398.53
2018-01-29T11:01:43.616Z,102408.28
2018-01-29T11:04:11.953Z,102400.88
2018-01-29T11:06:40.276Z,102402.80
2018-01-29T11:09:08.592Z,102404.38
2018-01-29T11:11:36.892Z,102409.77
2018-01-29T11:14:05.332Z,102413.37
2018-01-29T11:16:33.654Z,102401.23
2018-01-29T11:19:01.997Z,102383.18
2018-01-29T11:21:30.402Z,102386.80
2018-01-29T11:23:58.710Z,102385.97
2018-01-29T11:26:27.009Z,102373.13
2018-01-29T11:28:55.774Z,102377.39
2018-01-29T11:31:24.107Z,102358.91
2018-01-29T11:33:52.429Z,102365.62
2018-01-29T11:36:20.708Z,102368.23
2018-01-29T11:38:49.014Z,102353.60
2018-01-29T11:41:17.346Z,102356.78
2018-01-29T11:43:46.442Z,102356.78
2018-01-29T11:46:14.744Z,102342.63
2018-01-29T11:48:43.051Z,102339.56
2018-01-29T11:51:11.432Z,102328.94
2018-01-29T11:53:39.734Z,102329.02
2018-01-29T11:56:08.045Z,102328.01
2018-01-29T11:58:36.343Z,102313.28
2018-01-29T12:01:04.646Z,102307.48
2018-01-29T12:03:32.930Z,102284.36
2018-01-29T12:06:01.262Z,102296.61
2018-01-29T12:08:29.582Z,102321.55
2018-01-29T12:10:57.892Z,102308.09
2018-01-29T12:13:27.759Z,102294.08
2018-01-29T12:15:56.080Z,102289.31
2018-01-29T12:18:24.392Z,102285.66
2018-01-29T12:20:53.454Z,102304.97
2018-01-29T12:23:21.751Z,102283.45
2018-01-29T12:25:50.056Z,102281.60
2018-01-29T12:28:19.136Z,102279.80
2018-01-29T12:30:47.454Z,102257.37
2018-01-29T12:33:15.801Z,102256.75
2018-01-29T12:35:44.127Z,102267.80
2018-01-29T12:38:12.507Z,102249.03
2018-01-29T12:40:40.806Z,102263.18
2018-01-29T12:43:09.111Z,102232.19
2018-01-29T12:45:37.426Z,102233.59
2018-01-29T12:48:06.572Z,102245.00
2018-01-29T12:50:34.873Z,102239.27
2018-01-29T12:53:03.186Z,102223.60
2018-01-29T12:55:31.506Z,102227.03
2018-01-29T12:57:59.842Z,102214.69
2018-01-29T13:00:28.147Z,102207.30
2018-01-29T13:02:57.284Z,102216.70
2018-01-29T13:05:25.574Z,102187.06
2018-01-29T13:07:53.896Z,102204.97
2018-01-29T13:10:22.952Z,102194.29
2018-01-29T13:12:51.238Z,102194.33
2018-01-29T13:15:19.556Z,102199.19
2018-01-29T13:17:47.916Z,102190.70
2018-01-29T13:20:17.070Z,102184.48
2018-01-29T13:22:45.387Z,102194.02
2018-01-29T13:25:13.728Z,102192.84
2018-01-29T13:27:42.026Z,102189.75
2018-01-29T13:30:10.327Z,102165.22
2018-01-29T13:32:38.632Z,102167.12
2018-01-29T13:35:06.946Z,102163.34
2018-01-29T13:37:35.301Z,102158.73
2018-01-29T13:40:03.625Z,102173.41
2018-01-29T13:42:31.941Z,102168.05
2018-01-29T13:45:00.264Z,102169.84
2018-01-29T13:47:30.276Z,102159.42
2018-01-29T13:49:59.329Z,102159.27
2018-01-29T13:52:28.414Z,102136.62
2018-01-29T13:54:56.712Z,102159.45
2018-01-29T13:57:25.068Z,102144.50
2018-01-29T13:59:53.388Z,102152.89
2018-01-29T14:02:21.736Z,102153.98
2018-01-29T14:04:50.084Z,102164.30
2018-01-29T14:07:19.146Z,102173.36
2018-01-29T14:09:47.456Z,102166.30
2018-01-29T14:12:16.696Z,102150.59
2018-01-29T14:14:45.009Z,102151.84
2018-01-29T14:17:13.306Z,102160.04
2018-01-29T14:19:41.608Z,102146.53
2018-01-29T14:22:09.930Z,102162.59
2018-01-29T14:24:38.248Z,102145.02
2018-01-29T14:27:06.560Z,102150.78
2018-01-29T14:29:35.627Z,102166.66
2018-01-29T14:32:03.963Z,102165.73
2018-01-29T14:34:33.035Z,102159.76
2018-01-29T14:37:01.340Z,102161.33
2018-01-29T14:39:29.636Z,102174.78
2018-01-29T14:41:57.941Z,102163.34
2018-01-29T14:44:26.255Z,102144.75
2018-01-29T14:46:54.676Z,102157.67
2018-01-29T14:49:22.993Z,102155.16
2018-01-29T14:51:51.310Z,102158.36
2018-01-29T14:54:20.382Z,102146.19
2018-01-29T14:56:48.695Z,102150.52
2018-01-29T14:59:17.761Z,102143.93
2018-01-29T15:01:46.124Z,102148.09
2018-01-29T15:04:14.416Z,102166.20
2018-01-29T15:06:42.713Z,102162.77
2018-01-29T15:09:11.015Z,102166.10
2018-01-29T15:11:40.153Z,102155.84
2018-01-29T15:14:08.447Z,102163.94
2018-01-29T15:16:36.737Z,102155.25
2018-01-29T15:19:05.042Z,102161.01
2018-01-29T15:21:33.373Z,102162.75
2018-01-29T15:24:01.690Z,102167.66
2018-01-29T15:26:30.001Z,102155.08
2018-01-29T15:28:58.427Z,102174.67
2018-01-29T15:31:26.740Z,102177.94
2018-01-29T15:33:55.032Z,102184.19
2018-01-29T15:36:23.327Z,102186.61
2018-01-29T15:38:51.634Z,102214.62
2018-01-29T15:41:19.948Z,102210.20
2018-01-29T15:43:48.251Z,102227.22
2018-01-29T15:46:17.315Z,102220.88
2018-01-29T15:48:45.604Z,102250.97
2018-01-29T15:51:13.907Z,102255.47
2018-01-29T15:53:42.217Z,102263.22
2018-01-29T15:56:11.283Z,102269.23
2018-01-29T15:58:39.651Z,102276.63
2018-01-29T16:01:08.708Z,102275.13
2018-01-29T16:03:37.806Z,102288.75
2018-01-29T16:06:06.150Z,102296.23
2018-01-29T16:08:34.457Z,102296.67
2018-01-29T16:11:02.756Z,102303.50
2018-01-29T16:13:31.829Z,102309.26
2018-01-29T16:16:01.851Z,102313.42
2018-01-29T16:18:30.145Z,102323.94
2018-01-29T16:20:59.214Z,102326.75
2018-01-29T16:23:27.514Z,102338.44
2018-01-29T16:25:55.893Z,102337.00
2018-01-29T16:28:24.945Z,102343.73
2018-01-29T16:30:53.234Z,102346.55
2018-01-29T16:33:21.543Z,102355.64
2018-01-29T16:35:50.629Z,102362.63
2018-01-29T16:38:18.935Z,102376.89
2018-01-29T16:40:47.231Z,102390.86
2018-01-29T16:43:16.299Z,102389.98
2018-01-29T16:45:45.425Z,102384.48
2018-01-29T16:48:13.810Z,102398.82
2018-01-29T16:50:42.883Z,102391.04
2018-01-29T16:53:11.187Z,102398.61
2018-01-29T16:55:39.503Z,102394.98
2018-01-29T16:58:07.805Z,102400.33
2018-01-29T17:00:36.107Z,102409.63
2018-01-29T17:03:04.421Z,102405.37
2018-01-29T17:05:33.545Z,102408.17
2018-01-29T17:08:01.836Z,102420.45
2018-01-29T17:10:30.152Z,102427.38
2018-01-29T17:12:58.455Z,102435.88
2018-01-29T17:15:26.756Z,102440.27
2018-01-29T17:17:55.825Z,102450.92
2018-01-29T17:20:24.124Z,102450.70
2018-01-29T17:22:53.255Z,102462.83
2018-01-29T17:25:21.537Z,102470.58
2018-01-29T17:27:49.894Z,102486.98
2018-01-29T17:30:19.022Z,102476.27
2018-01-29T17:32:47.296Z,102492.17
2018-01-29T17:35:15.589Z,102493.11
2018-01-29T17:37:43.959Z,102496.09
2018-01-29T17:40:12.282Z,102503.82
2018-01-29T17:42:40.582Z,102514.25
2018-01-29T17:45:09.641Z,102516.00
2018-01-29T17:47:37.944Z,102515.38
2018-01-29T17:50:06.240Z,102517.33
2018-01-29T17:52:35.356Z,102530.22
2018-01-29T17:55:04.445Z,102534.00
2018-01-29T17:57:32.769Z,102532.45
2018-01-29T18:00:01.083Z,102546.31
2018-01-29T18:02:30.192Z,102550.80
2018-01-29T18:04:59.324Z,102564.87
2018-01-29T18:07:28.385Z,102569.70
2018-01-29T18:09:56.730Z,102568.86
2018-01-29T18:12:25.022Z,102583.06
2018-01-29T18:14:53.326Z,102580.69
2018-01-29T18:17:21.672Z,102579.01
2018-01-29T18:19:50.786Z,102589.92
2018-01-29T18:22:19.087Z,102591.81
2018-01-29T18:24:47.379Z,102585.80
2018-01-29T18:27:15.717Z,102578.86
2018-01-29T18:29:44.016Z,102594.83
2018-01-29T18:32:12.300Z,102599.23
2018-01-29T18:34:40.615Z,102609.10
2018-01-29T18:37:08.944Z,102620.82
2018-01-29T18:39:37.284Z,102611.58
2018-01-29T18:42:05.559Z,102632.30
2018-01-29T18:44:33.857Z,102638.53
2018-01-29T18:47:02.908Z,102636.01
2018-01-29T18:49:31.241Z,102641.81
2018-01-29T18:52:00.333Z,102649.80
2018-01-29T18:54:28.650Z,102642.80
2018-01-29T18:56:56.962Z,102650.00
2018-01-29T18:59:25.285Z,102665.33
2018-01-29T19:01:54.363Z,102661.14
2018-01-29T19:04:23.423Z,102669.59
2018-01-29T19:06:51.735Z,102663.57
2018-01-29T19:09:20.069Z,102677.51
2018-01-29T19:11:48.421Z,102697.04
2018-01-29T19:14:16.714Z,102709.14
2018-01-29T19:16:45.783Z,102710.48
2018-01-29T19:19:14.179Z,102707.25
2018-01-29T19:21:42.496Z,102709.62
2018-01-29T19:24:10.922Z,102724.48
2018-01-29T19:26:39.632Z,102723.78
2018-01-29T19:29:07.914Z,102729.17
2018-01-29T19:31:37.991Z,102729.02
2018-01-29T19:34:06.360Z,102738.11
2018-01-29T19:36:34.664Z,102732.92
2018-01-29T19:39:02.958Z,102735.81
2018-01-29T19:41:31.367Z,102729.23
2018-01-29T19:44:00.377Z,102721.87
2018-01-29T19:46:29.422Z,102729.56
2018-01-29T19:48:57.708Z,102742.09
2018-01-29T19:51:26.067Z,102752.30
2018-01-29T19:53:54.362Z,102771.89
2018-01-29T19:56:22.663Z,102774.27
2018-01-29T19:58:50.960Z,102783.15
2018-01-29T20:01:19.270Z,102779.09
2018-01-29T20:03:48.363Z,102776.98
2018-01-29T20:06:17.437Z,102790.48
2018-01-29T20:08:46.019Z,102789.80
2018-01-29T20:11:14.345Z,102785.45
2018-01-29T20:13:43.469Z,102793.63
2018-01-29T20:16:11.781Z,102809.30
2018-01-29T20:18:40.328Z,102808.39
2018-01-29T20:21:08.572Z,102806.08
2018-01-29T20:23:36.868Z,102803.72
2018-01-29T20:26:05.958Z,102808.06
2018-01-29T20:28:35.033Z,102813.51
2018-01-29T20:31:03.338Z,102807.84
2018-01-29T20:33:31.660Z,102806.77
2018-01-29T20:35:59.934Z,102809.49
2018-01-29T20:38:28.221Z,102805.92
2018-01-29T20:40:56.506Z,102791.86
2018-01-29T20:43:24.808Z,102791.79
2018-01-29T20:45:53.108Z,102790.27
2018-01-29T20:48:21.426Z,102815.59
2018-01-29T20:50:49.715Z,102819.57
2018-01-29T20:53:18.004Z,102823.49
2018-01-29T20:55:46.296Z,102838.54
2018-01-29T20:58:14.595Z,102834.13
2018-01-29T21:00:42.927Z,102830.70
2018-01-29T21:03:12.027Z,102831.41
2018-01-29T21:05:41.103Z,102834.27
2018-01-29T21:08:10.193Z,102855.47
2018-01-29T21:10:39.274Z,102864.28
2018-01-29T21:13:07.567Z,102865.35
2018-01-29T21:15:35.862Z,102873.39
2018-01-29T21:18:04.174Z,102874.30
2018-01-29T21:20:32.480Z,102869.34
2018-01-29T21:23:00.770Z,102880.95
2018-01-29T21:25:29.131Z,102887.79
2018-01-29T21:27:57.428Z,102892.81
2018-01-29T21:30:25.724Z,102891.91
2018-01-29T21:32:54.069Z,102889.25
2018-01-29T21:35:23.116Z,102896.64
2018-01-29T21:37:51.404Z,102895.34
2018-01-29T21:40:20.471Z,102901.98
2018-01-29T21:42:48.825Z,102909.28
2018-01-29T21:45:17.122Z,102902.14
2018-01-29T21:47:45.496Z,102913.91
2018-01-29T21:50:13.796Z,102919.82
2018-01-29T21:52:42.164Z,102929.84
2018-01-29T21:55:10.478Z,102936.13
2018-01-29T21:57:38.796Z,102938.27
2018-01-29T22:00:07.084Z,102930.06
2018-01-29T22:02:36.166Z,102932.30
2018-01-29T22:05:04.552Z,102934.05
2018-01-29T22:07:32.909Z,102928.80
2018-01-29T22:10:01.211Z,102935.08
2018-01-29T22:12:29.490Z,102939.62
2018-01-29T22:14:58.536Z,102937.15
2018-01-29T22:17:26.840Z,102930.27
2018-01-29T22:19:55.134Z,102943.75
2018-01-29T22:22:23.486Z,102941.38
2018-01-29T22:24:51.782Z,102950.94
2018-01-29T22:27:20.058Z,102965.13
2018-01-29T22:29:48.346Z,102958.06
2018-01-29T22:32:16.642Z,102956.31
2018-01-29T22:34:44.959Z,102969.54
2018-01-29T22:37:14.024Z,102975.70
2018-01-29T22:39:42.306Z,102988.33
2018-01-29T22:42:10.598Z,102998.23
2018-01-29T22:44:38.892Z,102990.39
2018-01-29T22:47:07.208Z,102990.45
2018-01-29T22:49:35.510Z,102994.86
2018-01-29T22:52:03.864Z,102986.59
2018-01-29T22:54:32.180Z,102990.19
2018-01-29T22:57:00.574Z,102988.22
2018-01-29T22:59:28.880Z,102991.17
2018-01-29T23:01:57.205Z,102993.89
2018-01-29T23:04:25.582Z,102989.19
2018-01-29T23:06:53.888Z,102992.42
2018-01-29T23:09:22.190Z,103000.03
2018-01-29T23:11:50.490Z,103003.53
2018-01-29T23:14:18.770Z,103010.18
2018-01-29T23:16:47.073Z,103014.01
2018-01-29T23:19:15.370Z,103015.70
2018-01-29T23:21:43.673Z,103019.32
2018-01-29T23:24:11.962Z,103023.25
2018-01-29T23:26:40.267Z,103029.11
2018-01-29T23:29:09.440Z,103038.77
2018-01-29T23:31:37.732Z,103034.59
2018-01-29T23:34:06.052Z,103033.27
2018-01-29T23:36:35.112Z,103037.32
2018-01-29T23:39:03.428Z,103036.41
2018-01-29T23:41:32.499Z,103038.59
2018-01-29T23:44:00.831Z,103040.88
2018-01-29T23:46:29.172Z,103043.54
2018-01-29T23:48:57.491Z,103044.45
2018-01-29T23:51:26.687Z,103034.36
2018-01-29T23:53:54.984Z,103034.42
2018-01-29T23:56:23.304Z,103041.70
2018-01-29T23:58:51.614Z,103031.50
